Time;durP1;ratioP1;P1;durP2;ratioP2;P2;SDS_P1;SDS_P2;PMS_P1;PMS_P2;Temp;Humidity;BMP_temperature;BMP_pressure;BME280_temperature;BME280_humidity;BME280_pressure;Samples;Min_cycle;Max_cycle;Signal;HPM_P1;HPM_P2
2022/02/01 00:02:05;;;;;;;10.07;3.72;;;6.30;99.90;;;;;;5014015;28;20058;-69
2022/02/01 00:05:20;;;;;;;10.68;4.40;;;6.30;99.90;;;;;;4997798;28;20065;-69
2022/02/01 00:07:54;;;;;;;11.05;3.28;;;6.40;99.90;;;;;;5010625;28;20058;-69
2022/02/01 00:10:18;;;;;;;14.93;5.65;;;6.40;99.90;;;;;;4993418;28;20181;-70
2022/02/01 00:15:59;;;;;;;12.95;4.80;;;6.40;99.90;;;;;;5012964;28;20116;-69
2022/02/01 00:37:00;;;;;;;;;;;6.60;99.90;;;;;;4989146;28;20045;-69
2022/02/01 00:39:32;;;;;;;12.93;3.80;;;6.60;99.90;;;;;;5012454;28;19932;-69
2022/02/01 00:41:59;;;;;;;9.27;3.35;;;6.60;99.90;;;;;;5011483;28;20456;-69
2022/02/01 00:44:26;;;;;;;9.43;3.40;;;6.60;99.90;;;;;;5011119;28;20057;-69
2022/02/01 00:46:53;;;;;;;9.18;3.70;;;6.60;99.90;;;;;;5011256;28;20081;-69
2022/02/01 00:49:20;;;;;;;10.55;3.58;;;6.70;99.90;;;;;;5012405;28;20050;-69
2022/02/01 00:51:47;;;;;;;9.45;3.10;;;6.70;99.90;;;;;;5011162;28;20512;-69
2022/02/01 00:54:15;;;;;;;10.85;4.10;;;6.70;99.90;;;;;;5012186;28;20045;-70
2022/02/01 00:56:43;;;;;;;9.48;2.88;;;6.70;99.90;;;;;;5037517;28;20067;-69
2022/02/01 00:59:10;;;;;;;9.45;2.75;;;6.70;99.90;;;;;;5028681;28;20060;-69
2022/02/01 01:01:36;;;;;;;9.10;3.15;;;6.70;99.90;;;;;;5031852;28;20485;-69
2022/02/01 01:04:04;;;;;;;8.57;3.15;;;6.80;99.90;;;;;;5029644;28;20056;-69
2022/02/01 01:06:31;;;;;;;9.45;3.03;;;6.80;99.90;;;;;;5032166;28;20049;-69
2022/02/01 01:08:58;;;;;;;9.35;2.85;;;6.80;99.90;;;;;;5023604;28;20488;-70
2022/02/01 01:11:25;;;;;;;14.82;5.43;;;6.80;99.90;;;;;;5032186;28;20056;-69
2022/02/01 01:44:32;;;;;;;7.90;3.22;;;7.00;99.90;;;;;;5010685;28;20148;-69
2022/02/01 01:53:11;;;;;;;8.90;2.97;;;7.00;99.90;;;;;;5034347;28;20053;-69
2022/02/01 01:55:20;;;;;;;10.07;3.40;;;7.00;99.90;;;;;;5005911;28;20050;-69
2022/02/01 01:57:47;;;;;;;8.95;3.33;;;7.00;99.90;;;;;;4992804;28;20055;-69
2022/02/01 02:03:01;;;;;;;8.95;3.00;;;7.00;99.90;;;;;;4981197;28;20060;-69
2022/02/01 02:05:28;;;;;;;6.85;2.40;;;7.00;99.90;;;;;;4999943;28;20076;-69
2022/02/01 02:07:55;;;;;;;8.18;2.67;;;7.00;99.90;;;;;;4997168;28;20478;-69
2022/02/01 02:10:29;;;;;;;11.10;3.30;;;7.00;99.90;;;;;;5010787;28;20144;-69
2022/02/01 02:16:00;;;;;;;11.23;2.90;;;7.00;99.90;;;;;;5006270;28;20128;-68
2022/02/01 02:18:29;;;;;;;;;;;7.00;99.90;;;;;;4982309;28;20046;-71
2022/02/01 02:20:57;;;;;;;9.02;3.33;;;7.00;99.90;;;;;;5009169;28;19921;-68
2022/02/01 02:23:24;;;;;;;11.82;5.32;;;7.00;99.90;;;;;;4981817;28;20070;-68
2022/02/01 02:25:51;;;;;;;10.43;3.25;;;6.90;99.90;;;;;;4989153;28;20042;-68
2022/02/01 02:28:19;;;;;;;10.45;3.65;;;6.90;99.90;;;;;;4969927;28;20042;-69
2022/02/01 02:30:47;;;;;;;13.70;4.57;;;6.90;99.90;;;;;;4989964;28;20064;-68
2022/02/01 02:33:16;;;;;;;10.40;3.17;;;6.90;99.90;;;;;;4977626;28;20057;-69
2022/02/01 02:35:57;;;;;;;11.57;3.55;;;6.80;99.90;;;;;;4983776;28;20046;-69
2022/02/01 02:38:42;;;;;;;7.80;3.55;;;6.80;99.90;;;;;;4998688;28;20049;-68
2022/02/01 02:46:36;;;;;;;13.35;3.88;;;6.90;99.90;;;;;;4990718;28;20038;-68
2022/02/01 02:49:07;;;;;;;11.15;4.55;;;6.90;99.90;;;;;;4998807;28;20052;-69
2022/02/01 02:51:34;;;;;;;14.32;5.10;;;6.90;99.90;;;;;;4995415;28;20046;-69
2022/02/01 02:54:09;;;;;;;12.98;5.68;;;6.90;99.90;;;;;;5027953;28;20041;-69
2022/02/01 02:56:36;;;;;;;8.77;3.78;;;6.90;99.90;;;;;;5023485;28;20377;-68
2022/02/01 02:59:03;;;;;;;12.07;3.58;;;6.90;99.90;;;;;;5018113;28;20049;-69
2022/02/01 03:01:30;;;;;;;17.15;4.97;;;6.90;99.90;;;;;;5046659;28;20053;-69
2022/02/01 03:03:58;;;;;;;16.90;4.15;;;6.90;99.90;;;;;;5053267;28;20338;-69
2022/02/01 03:06:24;;;;;;;13.50;5.22;;;7.00;99.90;;;;;;5035282;28;20049;-69
2022/02/01 03:08:51;;;;;;;18.42;5.55;;;7.00;99.90;;;;;;5031895;28;20044;-69
2022/02/01 03:11:18;;;;;;;11.75;5.07;;;7.00;99.90;;;;;;5035019;28;20053;-69
2022/02/01 03:13:58;;;;;;;13.88;4.65;;;7.00;99.90;;;;;;5032459;28;20080;-71
2022/02/01 03:21:56;;;;;;;15.02;5.30;;;7.00;99.90;;;;;;5036942;28;20060;-69
2022/02/01 03:24:23;;;;;;;11.48;4.70;;;7.00;99.90;;;;;;5012625;28;20049;-69
2022/02/01 03:26:50;;;;;;;11.63;3.65;;;7.10;99.90;;;;;;5019300;28;20043;-68
2022/02/01 03:29:17;;;;;;;10.70;4.00;;;7.10;99.90;;;;;;5033923;28;20493;-69
2022/02/01 03:31:44;;;;;;;13.98;5.57;;;7.10;99.90;;;;;;5024061;28;20046;-68
2022/02/01 03:34:11;;;;;;;17.05;5.70;;;7.10;99.90;;;;;;5039973;28;20045;-68
2022/02/01 03:36:38;;;;;;;18.05;5.07;;;7.10;99.90;;;;;;5032892;28;20051;-68
2022/02/01 03:39:05;;;;;;;16.17;4.25;;;7.20;99.90;;;;;;5042342;28;20045;-68
2022/02/01 03:41:32;;;;;;;19.45;6.00;;;7.20;99.90;;;;;;5022434;28;20057;-68
2022/02/01 03:44:01;;;;;;;14.82;5.07;;;7.20;99.90;;;;;;5031553;28;20059;-69
2022/02/01 03:46:28;;;;;;;20.00;4.97;;;7.20;99.90;;;;;;5038367;28;20087;-69
2022/02/01 03:48:55;;;;;;;15.23;4.50;;;7.20;99.90;;;;;;5018073;28;20052;-69
2022/02/01 03:51:22;;;;;;;16.33;5.72;;;7.30;99.90;;;;;;5021698;28;20056;-69
2022/02/01 03:53:49;;;;;;;16.80;6.43;;;7.30;99.90;;;;;;5032927;28;20053;-69
2022/02/01 03:56:16;;;;;;;17.77;5.57;;;7.30;99.90;;;;;;5014162;28;20041;-68
2022/02/01 03:58:43;;;;;;;19.63;5.65;;;7.30;99.90;;;;;;5012205;28;20049;-69
2022/02/01 04:01:09;;;;;;;11.15;4.60;;;7.30;99.90;;;;;;5013553;28;20042;-69
2022/02/01 04:03:36;;;;;;;15.60;6.38;;;7.40;99.90;;;;;;5018110;28;20556;-69
2022/02/01 04:06:04;;;;;;;17.67;5.25;;;7.40;99.90;;;;;;4999202;28;20046;-69
2022/02/01 04:08:31;;;;;;;20.55;7.43;;;7.40;99.90;;;;;;5011941;28;20125;-69
2022/02/01 04:10:57;;;;;;;19.13;5.60;;;7.40;99.90;;;;;;5015431;28;20076;-69
2022/02/01 04:13:24;;;;;;;19.20;5.78;;;7.40;99.90;;;;;;5011001;28;20128;-68
2022/02/01 04:15:51;;;;;;;11.57;4.93;;;7.50;99.90;;;;;;5011908;28;20056;-68
2022/02/01 04:18:19;;;;;;;32.30;6.75;;;7.50;99.90;;;;;;5015723;28;20125;-69
2022/02/01 04:20:46;;;;;;;18.52;7.28;;;7.50;99.90;;;;;;5011799;28;20056;-71
2022/02/01 04:23:13;;;;;;;12.77;5.80;;;7.50;99.90;;;;;;5014953;28;20124;-69
2022/02/01 04:25:40;;;;;;;23.35;7.68;;;7.60;99.90;;;;;;5012676;28;20439;-69
2022/02/01 04:28:06;;;;;;;13.82;5.40;;;7.60;99.90;;;;;;5016579;28;20046;-70
2022/02/01 04:30:33;;;;;;;22.50;6.65;;;7.60;99.90;;;;;;5021654;28;20041;-69
2022/02/01 04:33:06;;;;;;;23.30;7.82;;;7.60;99.90;;;;;;5010466;28;20045;-69
2022/02/01 04:35:33;;;;;;;19.55;5.95;;;7.70;99.90;;;;;;5015581;28;20051;-69
2022/02/01 04:38:00;;;;;;;11.07;5.38;;;7.70;99.90;;;;;;4996008;28;20084;-69
2022/02/01 04:40:28;;;;;;;14.77;6.07;;;7.70;99.90;;;;;;5014162;28;20052;-69
2022/02/01 04:42:55;;;;;;;16.67;6.53;;;7.70;99.90;;;;;;5031164;28;20056;-71
2022/02/01 04:45:23;;;;;;;15.15;6.18;;;7.70;99.90;;;;;;5014618;28;20052;-69
2022/02/01 04:47:51;;;;;;;17.33;5.90;;;7.80;99.90;;;;;;5014504;28;20081;-70
2022/02/01 04:50:24;;;;;;;15.80;5.78;;;7.80;99.90;;;;;;5009393;28;20053;-69
2022/02/01 04:52:53;;;;;;;21.15;7.57;;;7.80;99.90;;;;;;5012463;28;20132;-69
2022/02/01 04:55:22;;;;;;;16.35;5.45;;;7.80;99.90;;;;;;5029849;28;20041;-69
2022/02/01 04:57:55;;;;;;;20.90;7.35;;;7.80;99.90;;;;;;4998876;28;20045;-69
2022/02/01 05:00:27;;;;;;;18.95;6.80;;;7.80;99.90;;;;;;4997290;28;20404;-69
2022/02/01 05:02:55;;;;;;;17.15;5.53;;;7.80;99.90;;;;;;5008300;28;20128;-69
2022/02/01 05:05:28;;;;;;;19.15;5.88;;;7.90;99.90;;;;;;5010880;28;20092;-70
2022/02/01 05:08:01;;;;;;;16.52;6.55;;;7.80;99.90;;;;;;5026204;28;20471;-69
2022/02/01 05:10:29;;;;;;;22.52;13.88;;;7.90;99.90;;;;;;5013725;28;20080;-69
2022/02/01 05:13:07;;;;;;;50.53;33.15;;;7.90;99.90;;;;;;5012219;28;20057;-70
2022/02/01 05:15:36;;;;;;;15.97;8.07;;;8.00;99.90;;;;;;5011377;28;20041;-69
2022/02/01 05:18:04;;;;;;;22.85;8.55;;;8.00;99.90;;;;;;5013363;28;20288;-69
2022/02/01 05:23:09;;;;;;;11.95;5.15;;;8.00;99.90;;;;;;5011412;28;20050;-69
2022/02/01 05:25:36;;;;;;;16.95;6.20;;;8.00;99.90;;;;;;5027908;28;20536;-69
2022/02/01 05:28:03;;;;;;;14.77;5.97;;;8.00;99.90;;;;;;4998268;28;20068;-69
2022/02/01 05:30:30;;;;;;;19.98;6.88;;;8.00;99.90;;;;;;5013864;28;20056;-70
2022/02/01 05:32:57;;;;;;;15.77;4.80;;;8.00;99.90;;;;;;5025419;28;20044;-69
2022/02/01 05:35:24;;;;;;;21.58;5.70;;;8.00;99.90;;;;;;5022521;28;20426;-70
2022/02/01 05:37:51;;;;;;;20.75;5.60;;;8.00;99.90;;;;;;4994957;28;20046;-69
2022/02/01 05:40:19;;;;;;;25.13;5.60;;;8.10;99.90;;;;;;5031608;28;20128;-69
2022/02/01 05:45:23;;;;;;;17.88;6.22;;;8.10;99.90;;;;;;4996043;28;20064;-69
2022/02/01 05:47:53;;;;;;;16.58;5.32;;;8.10;99.90;;;;;;4995134;28;20049;-69
2022/02/01 05:50:20;;;;;;;21.73;6.22;;;8.10;99.90;;;;;;5007510;28;20493;-69
2022/02/01 05:52:47;;;;;;;15.02;5.95;;;8.10;99.90;;;;;;5005996;28;20050;-69
2022/02/01 05:55:15;;;;;;;22.27;7.07;;;8.10;99.90;;;;;;5042276;28;20048;-69
2022/02/01 05:57:43;;;;;;;17.08;5.50;;;8.10;99.90;;;;;;5026032;28;20054;-69
2022/02/01 06:00:11;;;;;;;13.75;5.45;;;8.10;99.90;;;;;;5040974;28;20045;-69
2022/02/01 06:02:40;;;;;;;14.55;5.28;;;8.10;99.90;;;;;;5032056;28;20045;-69
2022/02/01 06:05:07;;;;;;;18.83;5.75;;;8.20;99.90;;;;;;5022349;28;20064;-69
2022/02/01 06:07:34;;;;;;;20.45;5.88;;;8.20;99.90;;;;;;5031665;28;20503;-69
2022/02/01 06:10:01;;;;;;;16.30;4.72;;;8.20;99.90;;;;;;5011259;28;20045;-69
2022/02/01 06:12:41;;;;;;;12.50;4.03;;;8.20;99.90;;;;;;5042898;28;20132;-69
2022/02/01 06:15:09;;;;;;;13.43;4.82;;;8.20;99.90;;;;;;5026098;28;20037;-70
2022/02/01 06:17:36;;;;;;;14.38;5.78;;;8.30;99.90;;;;;;4999460;28;20057;-69
2022/02/01 06:20:08;;;;;;;18.67;4.57;;;8.30;99.90;;;;;;5022616;28;20041;-70
2022/02/01 06:22:35;;;;;;;13.10;5.25;;;8.20;99.90;;;;;;5028617;28;20518;-69
2022/02/01 06:25:03;;;;;;;13.63;4.93;;;8.30;99.90;;;;;;5026147;28;20041;-69
2022/02/01 06:27:30;;;;;;;10.73;5.70;;;8.30;99.90;;;;;;5037969;28;20063;-69
2022/02/01 06:29:59;;;;;;;19.70;6.85;;;8.30;99.90;;;;;;5039960;28;20396;-69
2022/02/01 06:32:34;;;;;;;16.45;5.18;;;8.30;99.90;;;;;;5020545;28;20120;-69
2022/02/01 06:35:01;;;;;;;17.33;6.15;;;8.30;99.90;;;;;;5031097;28;20576;-69
2022/02/01 06:37:28;;;;;;;19.27;5.88;;;8.30;99.90;;;;;;5023040;28;20044;-69
2022/02/01 06:39:55;;;;;;;20.85;6.00;;;8.30;99.90;;;;;;5028976;28;20519;-69
2022/02/01 06:42:22;;;;;;;13.43;5.38;;;8.30;99.90;;;;;;5046083;28;20044;-69
2022/02/01 06:44:49;;;;;;;15.77;6.28;;;8.40;99.90;;;;;;5050655;28;20049;-69
2022/02/01 06:47:16;;;;;;;9.55;4.13;;;8.40;99.90;;;;;;5036327;28;20823;-69
2022/02/01 06:49:44;;;;;;;13.77;5.55;;;8.40;99.90;;;;;;5014277;28;20045;-69
2022/02/01 06:52:11;;;;;;;15.25;4.93;;;8.40;99.90;;;;;;5032434;28;20536;-69
2022/02/01 06:54:40;;;;;;;14.27;4.80;;;8.40;99.90;;;;;;5017780;28;20158;-65
2022/02/01 06:57:08;;;;;;;21.58;8.80;;;8.40;99.90;;;;;;5034904;28;20061;-66
2022/02/01 06:59:35;;;;;;;82.25;52.80;;;8.50;99.90;;;;;;5032489;28;20046;-72
2022/02/01 07:02:03;;;;;;;22.40;9.45;;;8.50;99.90;;;;;;5034578;28;20139;-72
2022/02/01 07:04:30;;;;;;;11.55;5.28;;;8.60;99.90;;;;;;5028431;28;20049;-72
2022/02/01 07:06:57;;;;;;;18.23;5.82;;;8.50;99.90;;;;;;5033973;28;20048;-70
2022/02/01 07:09:24;;;;;;;15.38;4.30;;;8.50;99.90;;;;;;5022876;28;20045;-70
2022/02/01 07:11:51;;;;;;;15.23;4.53;;;8.50;99.90;;;;;;5016658;28;20073;-69
2022/02/01 07:14:18;;;;;;;57.30;37.05;;;8.60;99.90;;;;;;5010948;28;20045;-69
2022/02/01 07:16:46;;;;;;;18.70;7.82;;;8.60;99.90;;;;;;5030226;28;20077;-71
2022/02/01 07:19:13;;;;;;;15.55;5.45;;;8.60;99.90;;;;;;5033996;28;20440;-71
2022/02/01 07:21:40;;;;;;;17.08;4.80;;;8.60;99.90;;;;;;5034330;28;20144;-72
2022/02/01 07:24:15;;;;;;;13.52;4.40;;;8.50;99.90;;;;;;4998099;28;20137;-71
2022/02/01 07:26:51;;;;;;;13.10;4.30;;;8.40;99.90;;;;;;5031431;28;20076;-71
2022/02/01 07:29:18;;;;;;;19.25;6.88;;;8.40;99.90;;;;;;5017159;28;20045;-71
2022/02/01 07:31:45;;;;;;;11.57;4.38;;;8.30;99.90;;;;;;4984589;28;20046;-71
2022/02/01 07:34:13;;;;;;;10.77;3.50;;;8.30;99.90;;;;;;5000779;28;20049;-70
2022/02/01 07:36:41;;;;;;;10.18;4.45;;;8.30;99.90;;;;;;5013446;28;20045;-71
2022/02/01 07:39:09;;;;;;;8.15;3.78;;;8.20;99.90;;;;;;5009920;28;20053;-71
2022/02/01 07:41:36;;;;;;;13.05;3.88;;;8.20;99.90;;;;;;5016893;28;20387;-71
2022/02/01 07:44:03;;;;;;;11.93;4.45;;;8.20;99.90;;;;;;5015585;28;20411;-70
2022/02/01 07:46:32;;;;;;;9.35;3.38;;;8.20;99.90;;;;;;5049623;28;20080;-71
2022/02/01 07:48:59;;;;;;;11.00;3.95;;;8.20;99.90;;;;;;5032622;28;20042;-70
2022/02/01 07:51:26;;;;;;;15.60;4.10;;;8.20;99.90;;;;;;5034053;28;20481;-71
2022/02/01 07:53:53;;;;;;;10.02;3.65;;;8.20;99.90;;;;;;5028766;28;20045;-70
2022/02/01 07:56:19;;;;;;;9.32;4.07;;;8.30;99.90;;;;;;5013817;28;20050;-70
2022/02/01 07:58:46;;;;;;;13.77;4.57;;;8.30;99.90;;;;;;5028799;28;20042;-71
2022/02/01 08:01:13;;;;;;;10.93;3.10;;;8.30;99.90;;;;;;5013200;28;20049;-71
2022/02/01 08:03:42;;;;;;;12.15;3.60;;;8.40;99.90;;;;;;4996420;28;20050;-70
2022/02/01 08:06:09;;;;;;;13.85;3.72;;;8.40;99.90;;;;;;5009381;28;20049;-71
2022/02/01 08:08:36;;;;;;;10.85;2.80;;;8.50;99.90;;;;;;4999848;28;20056;-71
2022/02/01 08:11:08;;;;;;;10.55;3.80;;;8.60;99.90;;;;;;4978835;28;20056;-67
2022/02/01 08:14:37;;;;;;;8.25;3.10;;;8.60;99.90;;;;;;5013675;28;20041;-70
2022/02/01 08:16:47;;;;;;;10.80;3.33;;;8.60;99.90;;;;;;5001621;28;20104;-68
2022/02/01 08:19:27;;;;;;;8.63;2.70;;;8.70;99.90;;;;;;5028025;28;20042;-66
2022/02/01 08:21:55;;;;;;;8.75;2.72;;;8.80;99.90;;;;;;5013730;28;20050;-66
2022/02/01 08:24:22;;;;;;;10.02;3.50;;;8.80;99.90;;;;;;5013280;28;20042;-68
2022/02/01 08:26:50;;;;;;;9.45;2.83;;;8.80;99.90;;;;;;4980284;28;20164;-66
2022/02/01 08:29:17;;;;;;;7.90;3.50;;;8.90;99.90;;;;;;4994015;28;20068;-67
2022/02/01 08:31:47;;;;;;;7.07;3.35;;;8.90;99.90;;;;;;4980198;28;20208;-66
2022/02/01 08:34:18;;;;;;;10.63;2.80;;;8.90;99.90;;;;;;5007340;28;20410;-68
2022/02/01 08:36:46;;;;;;;8.43;2.60;;;9.00;99.90;;;;;;5022492;28;20547;-70
2022/02/01 08:39:13;;;;;;;153.98;105.55;;;9.00;99.90;;;;;;4988402;28;20465;-69
2022/02/01 08:41:41;;;;;;;16.88;8.40;;;9.10;99.90;;;;;;5012512;28;20052;-64
2022/02/01 08:44:09;;;;;;;8.85;4.47;;;9.20;99.90;;;;;;5029597;28;20050;-68
2022/02/01 08:46:36;;;;;;;7.03;3.40;;;9.20;99.90;;;;;;5007792;28;20049;-65
2022/02/01 08:49:03;;;;;;;10.32;4.57;;;9.30;99.90;;;;;;5028419;28;20128;-71
2022/02/01 08:51:38;;;;;;;7.90;3.35;;;9.30;99.90;;;;;;5002526;28;20054;-75
2022/02/01 08:54:11;;;;;;;15.52;4.18;;;9.30;99.90;;;;;;4985673;28;20128;-74
2022/02/01 08:59:29;;;;;;;13.90;8.85;;;9.40;99.90;;;;;;5011736;28;20042;-68
2022/02/01 09:01:56;;;;;;;5.72;3.05;;;9.40;99.90;;;;;;5006734;28;20050;-70
2022/02/01 09:04:26;;;;;;;14.43;3.35;;;9.50;99.90;;;;;;5010638;28;20046;-66
2022/02/01 09:06:53;;;;;;;9.00;3.50;;;9.50;99.90;;;;;;5009713;28;20124;-65
2022/02/01 09:09:20;;;;;;;12.27;3.45;;;9.50;99.90;;;;;;5010974;28;20061;-65
2022/02/01 09:11:48;;;;;;;7.75;3.95;;;9.50;99.90;;;;;;5011678;28;20045;-69
2022/02/01 09:14:16;;;;;;;8.60;3.22;;;9.60;99.90;;;;;;5013037;28;20050;-70
2022/02/01 09:16:43;;;;;;;15.10;4.90;;;9.60;99.90;;;;;;5005923;28;20042;-66
2022/02/01 09:19:10;;;;;;;5.95;3.20;;;9.70;99.90;;;;;;4994130;28;20042;-65
2022/02/01 09:21:37;;;;;;;7.20;3.03;;;9.70;99.90;;;;;;5006692;28;20052;-69
2022/02/01 09:24:05;;;;;;;10.40;2.83;;;9.80;99.90;;;;;;5026675;28;20050;-69
2022/02/01 09:26:32;;;;;;;9.10;3.30;;;9.80;99.90;;;;;;5009582;28;20096;-69
2022/02/01 09:29:17;;;;;;;6.47;3.05;;;9.90;99.90;;;;;;4997879;28;20041;-66
2022/02/01 09:31:44;;;;;;;7.43;3.30;;;9.90;99.90;;;;;;4993168;28;20076;-67
2022/02/01 09:34:11;;;;;;;9.00;2.80;;;9.90;99.90;;;;;;5006062;28;20054;-67
2022/02/01 09:36:38;;;;;;;8.27;3.70;;;9.90;99.90;;;;;;5001868;28;20102;-69
2022/02/01 09:39:07;;;;;;;6.90;2.90;;;9.90;99.90;;;;;;4986747;28;20050;-62
2022/02/01 09:41:38;;;;;;;79.30;56.72;;;9.90;99.90;;;;;;5009070;28;20042;-66
2022/02/01 09:44:05;;;;;;;31.98;19.85;;;10.00;99.90;;;;;;5007719;28;20052;-70
2022/02/01 09:46:34;;;;;;;10.98;4.45;;;10.00;99.90;;;;;;5011753;28;20401;-66
2022/02/01 09:49:08;;;;;;;6.43;3.03;;;10.00;99.90;;;;;;4999488;28;20074;-65
2022/02/01 09:51:35;;;;;;;7.55;3.42;;;10.10;99.90;;;;;;4991836;28;20057;-67
2022/02/01 09:54:21;;;;;;;20.10;4.32;;;10.10;99.90;;;;;;5014828;28;20497;-67
2022/02/01 09:56:50;;;;;;;11.18;2.67;;;10.20;99.90;;;;;;5009323;28;20054;-67
2022/02/01 09:59:20;;;;;;;16.30;4.67;;;10.20;99.90;;;;;;5005121;28;20058;-70
2022/02/01 10:01:54;;;;;;;6.93;2.65;;;10.30;99.90;;;;;;5013867;28;20301;-67
2022/02/01 10:04:28;;;;;;;9.00;2.85;;;10.40;99.90;;;;;;5011329;28;21016;-74
2022/02/01 10:07:12;;;;;;;7.80;2.67;;;10.40;99.90;;;;;;4994148;28;20125;-70
2022/02/01 10:09:58;;;;;;;4.13;2.00;;;10.50;99.90;;;;;;5006512;28;20050;-65
2022/02/01 10:12:35;;;;;;;6.80;3.00;;;10.60;99.90;;;;;;5001265;28;20053;-67
2022/02/01 10:15:16;;;;;;;8.40;2.65;;;10.60;99.90;;;;;;5014271;28;20121;-77
2022/02/01 10:17:48;;;;;;;10.95;3.33;;;10.70;99.90;;;;;;4999071;28;20337;-68
2022/02/01 10:20:16;;;;;;;8.23;2.72;;;10.70;99.90;;;;;;5013068;28;20485;-67
2022/02/01 10:22:44;;;;;;;6.15;2.60;;;10.80;99.90;;;;;;4995016;28;20049;-69
2022/02/01 10:25:29;;;;;;;7.55;2.38;;;10.80;99.90;;;;;;4990461;28;20049;-72
2022/02/01 10:28:00;;;;;;;7.35;2.10;;;10.80;99.90;;;;;;5008521;28;20052;-70
2022/02/01 10:30:49;;;;;;;5.38;1.98;;;10.80;99.90;;;;;;5010398;28;20044;-66
2022/02/01 10:33:54;;;;;;;4.57;2.20;;;10.80;99.90;;;;;;5006817;28;20444;-69
2022/02/01 10:36:22;;;;;;;72.18;54.47;;;10.90;99.90;;;;;;5009236;28;20306;-73
2022/02/01 10:38:51;;;;;;;91.70;67.93;;;10.90;99.90;;;;;;5000771;28;20042;-75
2022/02/01 10:41:23;;;;;;;47.80;36.45;;;11.00;99.90;;;;;;5010094;28;20046;-69
2022/02/01 10:43:51;;;;;;;6.43;4.10;;;11.10;99.90;;;;;;5018653;28;20049;-69
2022/02/01 10:46:20;;;;;;;7.28;3.30;;;11.00;99.90;;;;;;5014139;28;20509;-71
2022/02/01 10:48:48;;;;;;;4.35;2.70;;;11.00;99.90;;;;;;5013959;28;20050;-69
2022/02/01 10:51:22;;;;;;;5.82;2.65;;;11.00;99.90;;;;;;4997505;28;20038;-70
2022/02/01 10:53:51;;;;;;;7.82;2.67;;;11.00;99.90;;;;;;5012060;28;20057;-69
2022/02/01 10:56:19;;;;;;;6.75;2.45;;;11.00;99.90;;;;;;5036237;28;20057;-70
2022/02/01 10:58:47;;;;;;;5.55;2.53;;;11.10;99.90;;;;;;5021442;28;20045;-69
2022/02/01 11:01:14;;;;;;;5.32;2.40;;;11.10;99.90;;;;;;5001418;28;20053;-70
2022/02/01 11:03:44;;;;;;;5.57;2.67;;;11.10;99.90;;;;;;5034257;28;20045;-70
2022/02/01 11:06:11;;;;;;;5.63;2.80;;;11.20;99.90;;;;;;5014497;28;20050;-68
2022/02/01 11:08:39;;;;;;;5.43;2.60;;;11.20;99.90;;;;;;5006933;28;20084;-69
2022/02/01 11:11:06;;;;;;;9.10;1.90;;;11.30;99.90;;;;;;5014548;28;20041;-75
2022/02/01 11:13:41;;;;;;;6.88;2.08;;;11.30;99.90;;;;;;5030071;28;20469;-77
2022/02/01 11:16:12;;;;;;;3.05;1.90;;;11.40;99.90;;;;;;5032161;28;20045;-77
2022/02/01 11:18:39;;;;;;;14.05;2.45;;;11.50;99.90;;;;;;5030446;28;20496;-77
2022/02/01 11:21:10;;;;;;;8.35;2.67;;;11.60;99.90;;;;;;5019419;28;20116;-75
2022/02/01 11:23:47;;;;;;;18.75;3.47;;;11.60;99.90;;;;;;5032377;28;20046;-74
2022/02/01 11:26:35;;;;;;;7.15;2.30;;;11.70;99.90;;;;;;5019266;28;20065;-76
2022/02/01 11:29:28;;;;;;;4.20;2.15;;;11.80;99.90;;;;;;5026297;28;20468;-69
2022/02/01 11:31:58;;;;;;;6.97;1.77;;;11.90;99.90;;;;;;5029357;28;20069;-80
2022/02/01 11:34:29;;;;;;;3.28;1.60;;;12.00;99.90;;;;;;5001697;28;20405;-76
2022/02/01 11:36:58;;;;;;;7.43;2.00;;;12.00;99.90;;;;;;4998859;28;20060;-66
2022/02/01 11:39:25;;;;;;;4.72;1.70;;;12.10;99.90;;;;;;5019520;28;20045;-74
2022/02/01 11:41:53;;;;;;;3.78;1.73;;;12.10;99.50;;;;;;5000690;28;20077;-69
2022/02/01 11:44:28;;;;;;;8.43;2.00;;;12.10;99.80;;;;;;5032819;28;20164;-70
2022/02/01 11:47:05;;;;;;;2.33;1.40;;;12.10;98.80;;;;;;5013142;28;20042;-72
2022/02/01 11:49:33;;;;;;;4.15;1.42;;;12.20;98.30;;;;;;5029382;28;20053;-75
2022/02/01 11:52:11;;;;;;;3.65;1.85;;;12.10;98.30;;;;;;5032593;28;20041;-73
2022/02/01 11:54:39;;;;;;;3.60;1.58;;;12.10;96.50;;;;;;5027515;28;20053;-70
2022/02/01 11:57:26;;;;;;;5.90;2.22;;;12.20;97.40;;;;;;5009078;28;20042;-73
2022/02/01 11:59:59;;;;;;;4.23;2.00;;;12.30;97.40;;;;;;5006741;28;20050;-71
2022/02/01 12:02:37;;;;;;;7.40;1.67;;;12.50;96.50;;;;;;5011956;28;20345;-70
2022/02/01 12:05:14;;;;;;;2.97;1.52;;;12.50;94.80;;;;;;5013964;28;20431;-77
2022/02/01 12:07:46;;;;;;;5.50;1.70;;;12.50;94.70;;;;;;4994209;28;20050;-77
2022/02/01 12:10:14;;;;;;;4.05;1.55;;;12.50;93.90;;;;;;5021921;28;20045;-76
2022/02/01 12:12:42;;;;;;;8.00;1.60;;;12.50;93.90;;;;;;5032040;28;20068;-78
2022/02/01 12:15:09;;;;;;;3.85;1.67;;;12.50;94.10;;;;;;5012273;28;20485;-72
2022/02/01 12:17:49;;;;;;;2.95;1.50;;;12.50;94.50;;;;;;5019551;28;20061;-74
2022/02/01 12:20:17;;;;;;;4.07;1.50;;;12.60;94.10;;;;;;5013331;28;20060;-72
2022/02/01 12:23:23;;;;;;;6.13;1.90;;;12.50;94.70;;;;;;5015600;28;20125;-73
2022/02/01 12:25:51;;;;;;;4.82;1.50;;;12.50;94.70;;;;;;5011799;28;20116;-75
2022/02/01 12:28:20;;;;;;;3.60;1.50;;;12.50;95.70;;;;;;4993533;28;20050;-70
2022/02/01 12:30:50;;;;;;;3.80;1.70;;;12.50;95.10;;;;;;4992024;28;20053;-70
2022/02/01 12:33:22;;;;;;;5.00;1.80;;;12.50;94.60;;;;;;5004039;28;20126;-71
2022/02/01 12:35:54;;;;;;;5.50;1.80;;;12.50;95.00;;;;;;4996786;28;20060;-71
2022/02/01 12:38:25;;;;;;;5.47;2.05;;;12.60;94.90;;;;;;5011796;28;20100;-73
2022/02/01 12:41:02;;;;;;;2.83;1.83;;;12.60;94.00;;;;;;4990106;28;20057;-71
2022/02/01 12:43:33;;;;;;;6.32;1.80;;;12.60;94.30;;;;;;5019895;28;20064;-71
2022/02/01 12:48:31;;;;;;;3.38;1.90;;;12.70;94.40;;;;;;5015225;28;20497;-72
2022/02/01 12:51:05;;;;;;;3.75;2.15;;;12.70;94.90;;;;;;5012104;28;20050;-73
2022/02/01 12:53:39;;;;;;;6.78;2.30;;;12.70;94.60;;;;;;5015799;28;20507;-62
2022/02/01 12:56:20;;;;;;;38.47;27.75;;;12.80;94.90;;;;;;5027469;28;20072;-75
2022/02/01 12:58:58;;;;;;;4.35;3.17;;;12.80;94.00;;;;;;5020693;28;20081;-71
2022/02/01 13:01:32;;;;;;;4.20;2.13;;;12.90;93.40;;;;;;5014796;28;20053;-75
2022/02/01 13:03:59;;;;;;;4.57;1.95;;;12.90;92.70;;;;;;5016278;28;20057;-74
2022/02/01 13:06:27;;;;;;;5.22;1.58;;;12.90;92.60;;;;;;4996030;28;20498;-77
2022/02/01 13:14:55;;;;;;;4.68;1.63;;;12.90;91.80;;;;;;5017979;28;20129;-72
2022/02/01 13:23:04;;;;;;;5.53;1.60;;;12.90;93.40;;;;;;5028654;28;20068;-69
2022/02/01 13:25:42;;;;;;;6.43;1.73;;;12.90;92.00;;;;;;5007985;28;20049;-77
2022/02/01 13:28:13;;;;;;;3.00;1.50;;;12.90;91.90;;;;;;5029499;28;20156;-74
2022/02/01 13:30:44;;;;;;;3.47;1.58;;;13.00;91.50;;;;;;5029348;28;20046;-79
2022/02/01 13:33:14;;;;;;;4.45;1.70;;;13.00;91.40;;;;;;5027690;28;20046;-75
2022/02/01 13:35:48;;;;;;;5.28;1.60;;;13.10;91.60;;;;;;5011229;28;20075;-70
2022/02/01 13:38:15;;;;;;;4.25;1.90;;;13.10;91.20;;;;;;5026213;28;20053;-70
2022/02/01 13:40:42;;;;;;;3.65;1.65;;;13.10;91.10;;;;;;5006702;28;20132;-69
2022/02/01 13:43:20;;;;;;;4.20;2.00;;;13.10;90.80;;;;;;5024827;28;20055;-70
2022/02/01 13:45:48;;;;;;;4.10;1.70;;;13.10;90.90;;;;;;5000355;28;20053;-73
2022/02/01 13:48:23;;;;;;;40.47;31.13;;;13.10;91.40;;;;;;5011937;28;20049;-70
2022/02/01 13:50:50;;;;;;;4.03;2.85;;;13.20;90.80;;;;;;5005068;28;20048;-69
2022/02/01 13:53:18;;;;;;;5.70;2.00;;;13.30;90.70;;;;;;5030386;28;20419;-69
2022/02/01 13:55:45;;;;;;;3.08;1.70;;;13.20;90.90;;;;;;4993032;28;20046;-69
2022/02/01 13:58:16;;;;;;;4.28;1.40;;;13.20;90.50;;;;;;4992443;28;20553;-69
2022/02/01 14:00:48;;;;;;;3.63;1.75;;;13.30;91.00;;;;;;4992373;28;20157;-69
2022/02/01 14:03:41;;;;;;;4.45;1.80;;;13.30;91.20;;;;;;4989058;28;20056;-71
2022/02/01 14:06:28;;;;;;;2.65;1.30;;;13.40;91.20;;;;;;5012822;28;20081;-68
2022/02/01 14:28:47;;;;;;;56.60;43.72;;;13.40;92.30;;;;;;4998863;28;20468;-68
2022/02/01 14:33:58;;;;;;;4.82;2.40;;;13.40;92.40;;;;;;5016214;28;20100;-67
2022/02/01 14:36:29;;;;;;;3.30;1.85;;;13.30;92.50;;;;;;5019290;28;20046;-67
2022/02/01 14:44:33;;;;;;;3.70;1.30;;;13.30;93.10;;;;;;5028158;28;20054;-68
2022/02/01 14:47:01;;;;;;;2.92;1.60;;;13.30;93.00;;;;;;4997202;28;20504;-68
2022/02/01 14:49:28;;;;;;;3.83;1.98;;;13.30;92.90;;;;;;5028855;28;20526;-67
2022/02/01 14:51:57;;;;;;;2.95;1.42;;;13.30;92.80;;;;;;4997125;28;20050;-68
2022/02/01 15:13:20;;;;;;;84.70;63.38;;;13.20;94.20;;;;;;5001056;28;20060;-75
2022/02/01 15:15:47;;;;;;;6.68;4.05;;;13.30;93.40;;;;;;5013809;28;20508;-73
2022/02/01 15:18:14;;;;;;;6.57;3.28;;;13.30;92.70;;;;;;5011426;28;20494;-72
2022/02/01 15:20:42;;;;;;;3.35;1.85;;;13.40;91.90;;;;;;5013324;28;20049;-72
2022/02/01 15:23:09;;;;;;;2.65;1.40;;;13.40;91.50;;;;;;5013398;28;20146;-71
2022/02/01 15:25:36;;;;;;;3.33;1.65;;;13.40;91.30;;;;;;5014733;28;20050;-75
2022/02/01 15:28:03;;;;;;;5.47;1.60;;;13.40;91.00;;;;;;5013476;28;20128;-71